BAW65 EGLL-HKJK
Flight info
| Callsign | BAW65 |
|---|---|
| Flight time | N/A |
| Altitude | 23000 |
| Route | N0413F230 MODMI1J MODMI M185 MID L612 HAWKE/N0484F350 UL612 INPAX/N0486F370 UL612 OGULO DCT OKASI DCT OKEKO DCT MOU DCT MADIV DCT MOKIP DCT TUFTA DCT GEVEA DCT ORSUD DCT BIBAN DCT EKDIR DCT LOMED DCT LUXIL DCT MOKTO DCT LUPAL DCT LATAN DCT TRL UL604 SALUN N705 BOPIX N710 TAKRI P751 AST/N0490F390 P751 LXR M999 JDW G650 RASKA/N0489F400 G650 KONET M308 RUDOL UM308 NAK NAK2Z |
| Aircraft | A35K/H-SDE2E3GHIJ3J4J5LM1ORWXY/LB1D1 |
Departure
| Time | 2026-05-07 08:29 |
|---|---|
| Airport | London Heathrow Airport (EGLL) |
Arrival
| Time | N/A |
|---|---|
| Airport | Jomo Kenyatta International Airport (HKJK) |
| Time | Latitude | Longitude | Altitude | Speed | Heading |
|---|---|---|---|---|---|
| 2026-05-07 07:28 | 51.46849 | -0.48232 | 92 ft | 0 kts | 90° |
| 2026-05-07 08:20 | 51.46849 | -0.48250 | 94 ft | 4 kts | 90° |
| 2026-05-07 08:20 | 51.46849 | -0.48293 | 92 ft | 4 kts | 90° |
| 2026-05-07 08:20 | 51.46849 | -0.48327 | 92 ft | 4 kts | 105° |
| 2026-05-07 08:21 | 51.46861 | -0.48354 | 92 ft | 4 kts | 175° |
| 2026-05-07 08:21 | 51.46886 | -0.48355 | 91 ft | 4 kts | 180° |
| 2026-05-07 08:21 | 51.46901 | -0.48355 | 92 ft | 0 kts | 180° |
| 2026-05-07 08:25 | 51.46897 | -0.48355 | 92 ft | 2 kts | 180° |
| 2026-05-07 08:26 | 51.46829 | -0.48354 | 92 ft | 7 kts | 180° |
| 2026-05-07 08:26 | 51.46771 | -0.48354 | 94 ft | 9 kts | 184° |
| 2026-05-07 08:26 | 51.46743 | -0.48427 | 94 ft | 9 kts | 264° |
| 2026-05-07 08:27 | 51.46742 | -0.48541 | 92 ft | 11 kts | 270° |
| 2026-05-07 08:27 | 51.46742 | -0.48664 | 92 ft | 6 kts | 270° |
| 2026-05-07 08:27 | 51.46728 | -0.48731 | 97 ft | 6 kts | 220° |
| 2026-05-07 08:27 | 51.46680 | -0.48747 | 94 ft | 8 kts | 186° |
| 2026-05-07 08:28 | 51.46615 | -0.48761 | 95 ft | 10 kts | 193° |
| 2026-05-07 08:28 | 51.46539 | -0.48785 | 95 ft | 12 kts | 174° |
| 2026-05-07 08:28 | 51.46480 | -0.48697 | 97 ft | 12 kts | 107° |
| 2026-05-07 08:28 | 51.46478 | -0.48537 | 95 ft | 20 kts | 89° |
| 2026-05-07 08:29 | 51.46479 | -0.47996 | 93 ft | 83 kts | 90° |
| 2026-05-07 08:29 | 51.46484 | -0.46736 | 95 ft | 142 kts | 89° |
| 2026-05-07 08:29 | 51.46488 | -0.44925 | 370 ft | 167 kts | 92° |
| 2026-05-07 08:29 | 51.46466 | -0.43121 | 1193 ft | 159 kts | 94° |
| 2026-05-07 08:30 | 51.46154 | -0.41331 | 1520 ft | 182 kts | 117° |
| 2026-05-07 08:30 | 51.45456 | -0.39486 | 1914 ft | 205 kts | 128° |
| 2026-05-07 08:30 | 51.44219 | -0.38131 | 2268 ft | 229 kts | 159° |
| 2026-05-07 08:30 | 51.42665 | -0.37303 | 2884 ft | 240 kts | 163° |
| 2026-05-07 08:31 | 51.41039 | -0.36519 | 3575 ft | 248 kts | 167° |
| 2026-05-07 08:31 | 51.39299 | -0.36336 | 4172 ft | 255 kts | 191° |
| 2026-05-07 08:31 | 51.37624 | -0.37293 | 4918 ft | 257 kts | 207° |
| 2026-05-07 08:31 | 51.36009 | -0.38575 | 5698 ft | 261 kts | 208° |
| 2026-05-07 08:32 | 51.34378 | -0.39879 | 6519 ft | 264 kts | 207° |
| 2026-05-07 08:32 | 51.32681 | -0.41051 | 7265 ft | 269 kts | 195° |
| 2026-05-07 08:32 | 51.30807 | -0.41219 | 8041 ft | 274 kts | 174° |
| 2026-05-07 08:32 | 51.28904 | -0.40787 | 8853 ft | 278 kts | 171° |
| 2026-05-07 08:33 | 51.26979 | -0.40276 | 9675 ft | 282 kts | 171° |
| 2026-05-07 08:33 | 51.25018 | -0.39765 | 10405 ft | 290 kts | 171° |
| 2026-05-07 08:33 | 51.22959 | -0.39233 | 10778 ft | 310 kts | 171° |
| 2026-05-07 08:33 | 51.20778 | -0.38536 | 11123 ft | 329 kts | 164° |
| 2026-05-07 08:34 | 51.18533 | -0.37400 | 11486 ft | 347 kts | 161° |
| 2026-05-07 08:34 | 51.16222 | -0.35997 | 11893 ft | 362 kts | 158° |
| 2026-05-07 08:34 | 51.13898 | -0.34453 | 12522 ft | 370 kts | 157° |
| 2026-05-07 08:34 | 51.11492 | -0.32798 | 13229 ft | 375 kts | 157° |
| 2026-05-07 08:35 | 51.09118 | -0.31162 | 13949 ft | 379 kts | 157° |
| 2026-05-07 08:35 | 51.06687 | -0.29508 | 14604 ft | 382 kts | 158° |
| 2026-05-07 08:35 | 51.04227 | -0.27857 | 15241 ft | 386 kts | 158° |
| 2026-05-07 08:35 | 51.01735 | -0.26201 | 15898 ft | 390 kts | 158° |
| 2026-05-07 08:36 | 50.99217 | -0.24538 | 16552 ft | 393 kts | 158° |
| 2026-05-07 08:36 | 50.96683 | -0.22869 | 17217 ft | 397 kts | 158° |
| 2026-05-07 08:36 | 50.94123 | -0.21187 | 17878 ft | 400 kts | 158° |
| 2026-05-07 08:36 | 50.91530 | -0.19486 | 18527 ft | 404 kts | 158° |
| 2026-05-07 08:37 | 50.88921 | -0.17774 | 19112 ft | 409 kts | 158° |
| 2026-05-07 08:37 | 50.86290 | -0.16001 | 19702 ft | 413 kts | 156° |
| 2026-05-07 08:37 | 50.83679 | -0.14048 | 20293 ft | 417 kts | 155° |
| 2026-05-07 08:37 | 50.81058 | -0.12028 | 20879 ft | 421 kts | 154° |
| 2026-05-07 08:38 | 50.78426 | -0.09959 | 21487 ft | 425 kts | 154° |
| 2026-05-07 08:38 | 50.75848 | -0.07597 | 22087 ft | 429 kts | 148° |
| 2026-05-07 08:38 | 50.73350 | -0.04991 | 22682 ft | 433 kts | 146° |
| 2026-05-07 08:38 | 50.70863 | -0.02246 | 23279 ft | 437 kts | 145° |
| 2026-05-07 08:39 | 50.68390 | 0.00568 | 23821 ft | 441 kts | 145° |
| 2026-05-07 08:39 | 50.65894 | 0.03440 | 24278 ft | 446 kts | 144° |
| 2026-05-07 08:39 | 50.63380 | 0.06335 | 24760 ft | 449 kts | 145° |
| 2026-05-07 08:39 | 50.60841 | 0.09247 | 25237 ft | 453 kts | 145° |
| 2026-05-07 08:40 | 50.58282 | 0.12167 | 25732 ft | 456 kts | 145° |
| 2026-05-07 08:40 | 50.55734 | 0.15062 | 26217 ft | 459 kts | 145° |
| 2026-05-07 08:40 | 50.53134 | 0.18005 | 26683 ft | 462 kts | 146° |
| 2026-05-07 08:40 | 50.50476 | 0.21012 | 27179 ft | 466 kts | 146° |
| 2026-05-07 08:41 | 50.47870 | 0.23949 | 27659 ft | 469 kts | 146° |
| 2026-05-07 08:41 | 50.45217 | 0.26932 | 28120 ft | 472 kts | 146° |
| 2026-05-07 08:41 | 50.42531 | 0.29952 | 28568 ft | 475 kts | 146° |
| 2026-05-07 08:41 | 50.39833 | 0.32979 | 28973 ft | 479 kts | 146° |
| 2026-05-07 08:42 | 50.37115 | 0.36020 | 29352 ft | 482 kts | 146° |
| 2026-05-07 08:42 | 50.34374 | 0.39083 | 29801 ft | 485 kts | 146° |
| 2026-05-07 08:42 | 50.31616 | 0.42160 | 30195 ft | 488 kts | 146° |
| 2026-05-07 08:42 | 50.28841 | 0.45255 | 30507 ft | 491 kts | 146° |
| 2026-05-07 08:43 | 50.26060 | 0.48359 | 30857 ft | 493 kts | 146° |
| 2026-05-07 08:43 | 50.23269 | 0.51466 | 31331 ft | 491 kts | 146° |
| 2026-05-07 08:43 | 50.20492 | 0.54550 | 31823 ft | 489 kts | 146° |
| 2026-05-07 08:43 | 50.17725 | 0.57619 | 32262 ft | 488 kts | 146° |
| 2026-05-07 08:44 | 50.14957 | 0.60683 | 32653 ft | 488 kts | 146° |
| 2026-05-07 08:44 | 50.12189 | 0.63742 | 33078 ft | 487 kts | 146° |
| 2026-05-07 08:44 | 50.09429 | 0.66790 | 33499 ft | 486 kts | 146° |
| 2026-05-07 08:44 | 50.06673 | 0.69828 | 33904 ft | 485 kts | 146° |
| 2026-05-07 08:45 | 50.03926 | 0.72853 | 34250 ft | 484 kts | 146° |
| 2026-05-07 08:45 | 50.01208 | 0.75842 | 34539 ft | 484 kts | 146° |
| 2026-05-07 08:45 | 49.98465 | 0.78853 | 34809 ft | 484 kts | 146° |
| 2026-05-07 08:45 | 49.95714 | 0.81869 | 35059 ft | 484 kts | 146° |
| 2026-05-07 08:46 | 49.92964 | 0.84881 | 35254 ft | 485 kts | 146° |
| 2026-05-07 08:46 | 49.90204 | 0.87900 | 35490 ft | 486 kts | 146° |
| 2026-05-07 08:46 | 49.87440 | 0.90917 | 35756 ft | 485 kts | 146° |
| 2026-05-07 08:46 | 49.84677 | 0.93928 | 36023 ft | 485 kts | 146° |
| 2026-05-07 08:47 | 49.81918 | 0.96932 | 36251 ft | 485 kts | 146° |
| 2026-05-07 08:47 | 49.79156 | 0.99934 | 36468 ft | 485 kts | 146° |
| 2026-05-07 08:47 | 49.76387 | 1.02938 | 36685 ft | 485 kts | 146° |
| 2026-05-07 08:47 | 49.73626 | 1.05931 | 36896 ft | 485 kts | 146° |
| 2026-05-07 08:48 | 49.70855 | 1.08930 | 37051 ft | 487 kts | 146° |
| 2026-05-07 08:48 | 49.68065 | 1.11946 | 37074 ft | 491 kts | 146° |
| 2026-05-07 08:48 | 49.62441 | 1.18011 | 37072 ft | 493 kts | 146° |
| 2026-05-07 08:49 | 49.56819 | 1.24058 | 37074 ft | 492 kts | 146° |
| 2026-05-07 08:49 | 49.51234 | 1.30048 | 37067 ft | 492 kts | 147° |